sensor_id;sensor_type;location;lat;lon;timestamp;pressure;altitude;pressure_sealevel;temperature;humidity
37634;BME280;32048;49.902;22.508;2023-04-01T00:00:07;96943.28;;;9.95;100.00
37634;BME280;32048;49.902;22.508;2023-04-01T00:02:56;96936.56;;;9.91;100.00
37634;BME280;32048;49.902;22.508;2023-04-01T00:05:23;96937.19;;;9.94;100.00
37634;BME280;32048;49.902;22.508;2023-04-01T00:07:53;96940.78;;;9.93;100.00
37634;BME280;32048;49.902;22.508;2023-04-01T00:10:21;96936.34;;;9.94;100.00
37634;BME280;32048;49.902;22.508;2023-04-01T00:12:47;96938.00;;;9.95;100.00
37634;BME280;32048;49.902;22.508;2023-04-01T00:15:15;96936.25;;;9.95;100.00
37634;BME280;32048;49.902;22.508;2023-04-01T00:17:42;96931.81;;;9.96;100.00
37634;BME280;32048;49.902;22.508;2023-04-01T00:20:10;96925.69;;;9.95;100.00
37634;BME280;32048;49.902;22.508;2023-04-01T00:22:37;96933.59;;;9.95;100.00
37634;BME280;32048;49.902;22.508;2023-04-01T00:25:05;96931.81;;;9.96;100.00
37634;BME280;32048;49.902;22.508;2023-04-01T00:27:32;96925.69;;;9.95;100.00
37634;BME280;32048;49.902;22.508;2023-04-01T00:30:00;96921.38;;;9.94;100.00
37634;BME280;32048;49.902;22.508;2023-04-01T00:32:27;96911.78;;;9.93;100.00
37634;BME280;32048;49.902;22.508;2023-04-01T00:34:55;96916.34;;;9.91;100.00
37634;BME280;32048;49.902;22.508;2023-04-01T00:37:22;96916.56;;;9.88;100.00
37634;BME280;32048;49.902;22.508;2023-04-01T00:39:50;96915.72;;;9.88;100.00
37634;BME280;32048;49.902;22.508;2023-04-01T00:42:17;96921.13;;;9.86;100.00
37634;BME280;32048;49.902;22.508;2023-04-01T00:44:50;96915.84;;;9.86;100.00
37634;BME280;32048;49.902;22.508;2023-04-01T00:47:18;96922.44;;;9.81;100.00
37634;BME280;32048;49.902;22.508;2023-04-01T00:49:49;96927.00;;;9.78;100.00
37634;BME280;32048;49.902;22.508;2023-04-01T00:52:22;96929.53;;;9.80;100.00
37634;BME280;32048;49.902;22.508;2023-04-01T00:54:56;96924.97;;;9.82;100.00
37634;BME280;32048;49.902;22.508;2023-04-01T00:57:34;96914.19;;;9.85;100.00
37634;BME280;32048;49.902;22.508;2023-04-01T01:00:05;96913.94;;;9.88;100.00
37634;BME280;32048;49.902;22.508;2023-04-01T01:02:34;96923.63;;;9.88;100.00
37634;BME280;32048;49.902;22.508;2023-04-01T01:05:02;96933.09;;;9.79;100.00
37634;BME280;32048;49.902;22.508;2023-04-01T01:08:01;96921.25;;;9.73;100.00
37634;BME280;32048;49.902;22.508;2023-04-01T01:10:33;96915.84;;;9.75;100.00
37634;BME280;32048;49.902;22.508;2023-04-01T01:13:11;96914.06;;;9.75;100.00
37634;BME280;32048;49.902;22.508;2023-04-01T01:15:58;96909.63;;;9.76;100.00
37634;BME280;32048;49.902;22.508;2023-04-01T01:18:39;96915.13;;;9.73;100.00
37634;BME280;32048;49.902;22.508;2023-04-01T01:21:17;96914.06;;;9.75;100.00
37634;BME280;32048;49.902;22.508;2023-04-01T01:26:48;96909.03;;;9.72;100.00
37634;BME280;32048;49.902;22.508;2023-04-01T01:37:46;96919.94;;;9.68;100.00
37634;BME280;32048;49.902;22.508;2023-04-01T01:40:16;96919.94;;;9.68;100.00
37634;BME280;32048;49.902;22.508;2023-04-01T01:42:48;96920.91;;;9.67;100.00
37634;BME280;32048;49.902;22.508;2023-04-01T01:45:19;96920.03;;;9.66;100.00
37634;BME280;32048;49.902;22.508;2023-04-01T01:47:49;96919.19;;;9.66;100.00
37634;BME280;32048;49.902;22.508;2023-04-01T01:50:17;96924.63;;;9.64;100.00
37634;BME280;32048;49.902;22.508;2023-04-01T01:52:45;96925.56;;;9.63;100.00
37634;BME280;32048;49.902;22.508;2023-04-01T01:58:01;96926.75;;;9.59;100.00
37634;BME280;32048;49.902;22.508;2023-04-01T02:00:29;96922.44;;;9.58;100.00
37634;BME280;32048;49.902;22.508;2023-04-01T02:02:57;96926.16;;;9.55;100.00
37634;BME280;32048;49.902;22.508;2023-04-01T02:05:26;96929.75;;;9.54;100.00
37634;BME280;32048;49.902;22.508;2023-04-01T02:08:06;96930.72;;;9.53;100.00
37634;BME280;32048;49.902;22.508;2023-04-01T02:10:37;96936.19;;;9.50;100.00
37634;BME280;32048;49.902;22.508;2023-04-01T02:16:23;96938.00;;;9.50;100.00
37634;BME280;32048;49.902;22.508;2023-04-01T02:18:55;96946.16;;;9.47;100.00
37634;BME280;32048;49.902;22.508;2023-04-01T02:21:24;96943.38;;;9.48;100.00
37634;BME280;32048;49.902;22.508;2023-04-01T02:23:55;96947.59;;;9.51;100.00
37634;BME280;32048;49.902;22.508;2023-04-01T02:26:24;96951.91;;;9.52;100.00
37634;BME280;32048;49.902;22.508;2023-04-01T02:28:54;96947.59;;;9.51;100.00
37634;BME280;32048;49.902;22.508;2023-04-01T02:31:23;96957.41;;;9.49;100.00
37634;BME280;32048;49.902;22.508;2023-04-01T02:33:51;96958.50;;;9.46;100.00
37634;BME280;32048;49.902;22.508;2023-04-01T02:36:18;96952.59;;;9.43;100.00
37634;BME280;32048;49.902;22.508;2023-04-01T02:38:46;96949.59;;;9.36;100.00
37634;BME280;32048;49.902;22.508;2023-04-01T02:41:14;96952.69;;;9.30;100.00
37634;BME280;32048;49.902;22.508;2023-04-01T02:43:41;96950.53;;;9.24;100.00
37634;BME280;32048;49.902;22.508;2023-04-01T02:46:08;96958.06;;;9.17;100.00
37634;BME280;32048;49.902;22.508;2023-04-01T02:48:36;96961.97;;;9.11;100.00
37634;BME280;32048;49.902;22.508;2023-04-01T02:51:03;96964.22;;;9.05;100.00
37634;BME280;32048;49.902;22.508;2023-04-01T02:53:30;96964.69;;;8.99;100.00
37634;BME280;32048;49.902;22.508;2023-04-01T02:55:57;96959.53;;;8.97;100.00
37634;BME280;32048;49.902;22.508;2023-04-01T02:58:24;96966.81;;;8.93;100.00
37634;BME280;32048;49.902;22.508;2023-04-01T03:00:51;96968.72;;;8.91;100.00
37634;BME280;32048;49.902;22.508;2023-04-01T03:03:18;96966.44;;;8.87;100.00
37634;BME280;32048;49.902;22.508;2023-04-01T03:05:45;96959.59;;;8.84;100.00
37634;BME280;32048;49.902;22.508;2023-04-01T03:08:13;96961.59;;;8.81;100.00
37634;BME280;32048;49.902;22.508;2023-04-01T03:10:40;96964.25;;;8.81;100.00
37634;BME280;32048;49.902;22.508;2023-04-01T03:13:07;96960.78;;;8.80;100.00
37634;BME280;32048;49.902;22.508;2023-04-01T03:15:34;96967.22;;;8.76;100.00
37634;BME280;32048;49.902;22.508;2023-04-01T03:18:01;96951.66;;;8.73;100.00
37634;BME280;32048;49.902;22.508;2023-04-01T03:20:28;96962.28;;;8.71;100.00
37634;BME280;32048;49.902;22.508;2023-04-01T03:22:55;96960.63;;;8.70;100.00
37634;BME280;32048;49.902;22.508;2023-04-01T03:25:22;96956.44;;;8.68;100.00
37634;BME280;32048;49.902;22.508;2023-04-01T03:27:49;96962.88;;;8.64;100.00
37634;BME280;32048;49.902;22.508;2023-04-01T03:30:16;96964.66;;;8.63;100.00
37634;BME280;32048;49.902;22.508;2023-04-01T03:32:44;96976.13;;;8.62;100.00
37634;BME280;32048;49.902;22.508;2023-04-01T03:35:11;96970.13;;;8.60;100.00
37634;BME280;32048;49.902;22.508;2023-04-01T03:37:38;96969.41;;;8.58;100.00
37634;BME280;32048;49.902;22.508;2023-04-01T03:40:06;96977.41;;;8.57;100.00
37634;BME280;32048;49.902;22.508;2023-04-01T03:42:33;96969.63;;;8.55;100.00
37634;BME280;32048;49.902;22.508;2023-04-01T03:45:00;96982.06;;;8.53;100.00
37634;BME280;32048;49.902;22.508;2023-04-01T03:47:28;96978.69;;;8.51;100.00
37634;BME280;32048;49.902;22.508;2023-04-01T03:49:55;96984.06;;;8.49;100.00
37634;BME280;32048;49.902;22.508;2023-04-01T03:52:22;96976.28;;;8.48;100.00
37634;BME280;32048;49.902;22.508;2023-04-01T03:54:49;96995.53;;;8.48;100.00
37634;BME280;32048;49.902;22.508;2023-04-01T03:57:16;96992.28;;;8.45;100.00
37634;BME280;32048;49.902;22.508;2023-04-01T03:59:43;96993.25;;;8.44;100.00
37634;BME280;32048;49.902;22.508;2023-04-01T04:02:10;96997.88;;;8.40;100.00
37634;BME280;32048;49.902;22.508;2023-04-01T04:04:37;96985.44;;;8.42;100.00
37634;BME280;32048;49.902;22.508;2023-04-01T04:07:05;96987.25;;;8.42;100.00
37634;BME280;32048;49.902;22.508;2023-04-01T04:09:31;96992.59;;;8.40;100.00
37634;BME280;32048;49.902;22.508;2023-04-01T04:12:00;96983.94;;;8.38;100.00
37634;BME280;32048;49.902;22.508;2023-04-01T04:14:27;96984.09;;;8.37;100.00
37634;BME280;32048;49.902;22.508;2023-04-01T04:16:54;96984.81;;;8.39;100.00
37634;BME280;32048;49.902;22.508;2023-04-01T04:19:21;96994.59;;;8.37;100.00
37634;BME280;32048;49.902;22.508;2023-04-01T04:21:48;96989.22;;;8.38;100.00
37634;BME280;32048;49.902;22.508;2023-04-01T04:24:15;97000.50;;;8.40;100.00
37634;BME280;32048;49.902;22.508;2023-04-01T04:26:42;96988.47;;;8.36;100.00
37634;BME280;32048;49.902;22.508;2023-04-01T04:29:09;96989.44;;;8.35;100.00
37634;BME280;32048;49.902;22.508;2023-04-01T04:31:36;96988.81;;;8.31;100.00
37634;BME280;32048;49.902;22.508;2023-04-01T04:34:03;96992.31;;;8.32;100.00
37634;BME280;32048;49.902;22.508;2023-04-01T04:36:30;96988.59;;;8.35;100.00
37634;BME280;32048;49.902;22.508;2023-04-01T04:38:57;96998.16;;;8.36;100.00
37634;BME280;32048;49.902;22.508;2023-04-01T04:41:28;96996.59;;;8.33;100.00
37634;BME280;32048;49.902;22.508;2023-04-01T04:43:56;96997.44;;;8.33;100.00
37634;BME280;32048;49.902;22.508;2023-04-01T04:46:23;96998.16;;;8.36;100.00
37634;BME280;32048;49.902;22.508;2023-04-01T04:48:51;97001.53;;;8.38;100.00
37634;BME280;32048;49.902;22.508;2023-04-01T04:51:19;96999.88;;;8.37;100.00
37634;BME280;32048;49.902;22.508;2023-04-01T04:53:47;97003.44;;;8.36;100.00
37634;BME280;32048;49.902;22.508;2023-04-01T04:56:19;96999.97;;;8.35;100.00
37634;BME280;32048;49.902;22.508;2023-04-01T04:58:46;96997.66;;;8.30;100.00
37634;BME280;32048;49.902;22.508;2023-04-01T05:01:15;96995.75;;;8.32;100.00
37634;BME280;32048;49.902;22.508;2023-04-01T05:03:42;96997.56;;;8.32;100.00
37634;BME280;32048;49.902;22.508;2023-04-01T05:06:11;97005.31;;;8.33;100.00
37634;BME280;32048;49.902;22.508;2023-04-01T05:08:38;97006.28;;;8.32;100.00
37634;BME280;32048;49.902;22.508;2023-04-01T05:11:09;97002.59;;;8.35;100.00
37634;BME280;32048;49.902;22.508;2023-04-01T05:13:39;96998.91;;;8.38;100.00
37634;BME280;32048;49.902;22.508;2023-04-01T05:16:11;97005.84;;;8.39;100.00
37634;BME280;32048;49.902;22.508;2023-04-01T05:18:38;97002.25;;;8.40;100.00
37634;BME280;32048;49.902;22.508;2023-04-01T05:21:08;97017.84;;;8.43;100.00
37634;BME280;32048;49.902;22.508;2023-04-01T05:23:35;97013.44;;;8.43;100.00
37634;BME280;32048;49.902;22.508;2023-04-01T05:26:07;97016.91;;;8.44;100.00
37634;BME280;32048;49.902;22.508;2023-04-01T05:28:34;97013.31;;;8.45;100.00
37634;BME280;32048;49.902;22.508;2023-04-01T05:31:03;97014.19;;;8.45;100.00
37634;BME280;32048;49.902;22.508;2023-04-01T05:33:31;97013.31;;;8.45;100.00
37634;BME280;32048;49.902;22.508;2023-04-01T05:36:12;97015.13;;;8.44;100.00
37634;BME280;32048;49.902;22.508;2023-04-01T05:38:40;97018.38;;;8.48;100.00
37634;BME280;32048;49.902;22.508;2023-04-01T05:41:09;97018.16;;;8.51;100.00
37634;BME280;32048;49.902;22.508;2023-04-01T05:43:38;97006.47;;;8.55;100.00
37634;BME280;32048;49.902;22.508;2023-04-01T05:46:06;97015.81;;;8.59;100.00
37634;BME280;32048;49.902;22.508;2023-04-01T05:48:34;97009.16;;;8.66;100.00
37634;BME280;32048;49.902;22.508;2023-04-01T05:51:03;97012.41;;;8.70;100.00
37634;BME280;32048;49.902;22.508;2023-04-01T05:53:30;97016.63;;;8.72;100.00
37634;BME280;32048;49.902;22.508;2023-04-01T05:56:01;97018.19;;;8.75;100.00
37634;BME280;32048;49.902;22.508;2023-04-01T05:58:29;97022.16;;;8.81;100.00
37634;BME280;32048;49.902;22.508;2023-04-01T06:01:03;97023.00;;;8.81;100.00
37634;BME280;32048;49.902;22.508;2023-04-01T06:03:38;97017.50;;;8.84;100.00
37634;BME280;32048;49.902;22.508;2023-04-01T06:06:14;97019.19;;;8.85;100.00
37634;BME280;32048;49.902;22.508;2023-04-01T06:08:43;97011.81;;;8.90;100.00
37634;BME280;32048;49.902;22.508;2023-04-01T06:11:13;97018.28;;;8.98;100.00
37634;BME280;32048;49.902;22.508;2023-04-01T06:17:01;97023.75;;;9.19;100.00
37634;BME280;32048;49.902;22.508;2023-04-01T06:19:53;97018.53;;;9.30;100.00
37634;BME280;32048;49.902;22.508;2023-04-01T06:22:50;97023.38;;;9.47;100.00
37634;BME280;32048;49.902;22.508;2023-04-01T06:25:34;97023.69;;;9.67;100.00
37634;BME280;32048;49.902;22.508;2023-04-01T06:34:13;97045.31;;;10.06;100.00
37634;BME280;32048;49.902;22.508;2023-04-01T06:45:36;97052.41;;;10.39;97.20
37634;BME280;32048;49.902;22.508;2023-04-01T06:51:18;97048.59;;;10.43;97.11
37634;BME280;32048;49.902;22.508;2023-04-01T06:56:21;97049.53;;;10.53;95.79
37634;BME280;32048;49.902;22.508;2023-04-01T06:58:57;97049.16;;;10.58;95.66
37634;BME280;32048;49.902;22.508;2023-04-01T07:01:33;97039.81;;;10.54;94.12
37634;BME280;32048;49.902;22.508;2023-04-01T07:04:09;97051.31;;;10.53;95.09
37634;BME280;32048;49.902;22.508;2023-04-01T07:06:58;97046.66;;;10.56;94.56
37634;BME280;32048;49.902;22.508;2023-04-01T07:09:31;97055.78;;;10.52;94.90
37634;BME280;32048;49.902;22.508;2023-04-01T07:12:03;97054.69;;;10.44;93.97
37634;BME280;32048;49.902;22.508;2023-04-01T07:14:36;97055.06;;;10.39;94.92
37634;BME280;32048;49.902;22.508;2023-04-01T07:20:11;97059.63;;;10.37;95.07
37634;BME280;32048;49.902;22.508;2023-04-01T07:22:49;97057.81;;;11.15;100.00
37634;BME280;32048;49.902;22.508;2023-04-01T07:25:24;97044.09;;;12.57;89.18
37634;BME280;32048;49.902;22.508;2023-04-01T07:27:56;97043.72;;;13.60;80.20
37634;BME280;32048;49.902;22.508;2023-04-01T07:30:29;97040.50;;;14.23;77.84
37634;BME280;32048;49.902;22.508;2023-04-01T07:33:11;97042.75;;;14.65;70.75
37634;BME280;32048;49.902;22.508;2023-04-01T07:35:56;97037.84;;;14.70;72.09
37634;BME280;32048;49.902;22.508;2023-04-01T07:41:37;97035.34;;;15.32;71.96
37634;BME280;32048;49.902;22.508;2023-04-01T07:46:59;97027.47;;;17.14;61.21
37634;BME280;32048;49.902;22.508;2023-04-01T07:52:36;97030.72;;;17.99;52.91
37634;BME280;32048;49.902;22.508;2023-04-01T07:55:16;97038.22;;;17.79;53.88
37634;BME280;32048;49.902;22.508;2023-04-01T07:57:56;97030.69;;;17.66;55.84
37634;BME280;32048;49.902;22.508;2023-04-01T08:06:02;97032.03;;;16.18;57.61
37634;BME280;32048;49.902;22.508;2023-04-01T08:16:49;97036.88;;;14.71;65.44
37634;BME280;32048;49.902;22.508;2023-04-01T08:21:58;97023.78;;;15.06;66.66
37634;BME280;32048;49.902;22.508;2023-04-01T08:24:42;97032.78;;;16.03;62.67
37634;BME280;32048;49.902;22.508;2023-04-01T08:27:38;97028.69;;;17.44;54.89
37634;BME280;32048;49.902;22.508;2023-04-01T08:30:21;97033.13;;;18.50;51.15
37634;BME280;32048;49.902;22.508;2023-04-01T08:32:57;97025.50;;;18.86;47.70
37634;BME280;32048;49.902;22.508;2023-04-01T08:35:36;97027.00;;;18.81;47.88
37634;BME280;32048;49.902;22.508;2023-04-01T08:38:15;97030.47;;;18.42;49.50
37634;BME280;32048;49.902;22.508;2023-04-01T08:46:06;97016.34;;;20.19;44.26
37634;BME280;32048;49.902;22.508;2023-04-01T09:08:11;97035.75;;;16.94;52.46
37634;BME280;32048;49.902;22.508;2023-04-01T09:25:01;97035.91;;;15.72;57.73
37634;BME280;32048;49.902;22.508;2023-04-01T09:27:43;97045.22;;;15.76;57.29
37634;BME280;32048;49.902;22.508;2023-04-01T09:38:57;97044.78;;;16.07;57.95
37634;BME280;32048;49.902;22.508;2023-04-01T09:41:36;97040.50;;;16.40;57.63
37634;BME280;32048;49.902;22.508;2023-04-01T09:44:23;97041.97;;;17.11;55.30
37634;BME280;32048;49.902;22.508;2023-04-01T09:50:16;97046.41;;;18.02;49.08
37634;BME280;32048;49.902;22.508;2023-04-01T10:15:44;97040.19;;;19.22;43.81
37634;BME280;32048;49.902;22.508;2023-04-01T10:21:29;97044.56;;;19.15;44.23
37634;BME280;32048;49.902;22.508;2023-04-01T10:48:24;97014.44;;;27.27;28.55
37634;BME280;32048;49.902;22.508;2023-04-01T10:57:02;97014.16;;;23.84;32.47
37634;BME280;32048;49.902;22.508;2023-04-01T11:23:07;97010.03;;;18.65;45.99
37634;BME280;32048;49.902;22.508;2023-04-01T11:25:47;97013.53;;;18.58;47.75
37634;BME280;32048;49.902;22.508;2023-04-01T11:36:48;97003.97;;;22.98;38.30
37634;BME280;32048;49.902;22.508;2023-04-01T11:47:54;97011.44;;;21.76;38.64
37634;BME280;32048;49.902;22.508;2023-04-01T11:53:14;97039.03;;;19.93;48.71
37634;BME280;32048;49.902;22.508;2023-04-01T11:56:11;97041.22;;;18.25;54.96
37634;BME280;32048;49.902;22.508;2023-04-01T12:02:08;97042.28;;;16.31;58.85
37634;BME280;32048;49.902;22.508;2023-04-01T12:07:50;97040.34;;;15.89;55.62
37634;BME280;32048;49.902;22.508;2023-04-01T12:10:29;97043.47;;;15.67;54.95
37634;BME280;32048;49.902;22.508;2023-04-01T12:19:01;97046.53;;;15.90;61.37
37634;BME280;32048;49.902;22.508;2023-04-01T12:27:19;97037.78;;;16.32;65.19
37634;BME280;32048;49.902;22.508;2023-04-01T12:35:10;97022.97;;;18.29;69.06
37634;BME280;32048;49.902;22.508;2023-04-01T12:38:19;97032.59;;;19.57;56.10
37634;BME280;32048;49.902;22.508;2023-04-01T12:41:14;97026.16;;;21.01;49.60
37634;BME280;32048;49.902;22.508;2023-04-01T12:46:57;97023.16;;;22.40;39.70
37634;BME280;32048;49.902;22.508;2023-04-01T12:52:14;97027.56;;;21.98;40.88
37634;BME280;32048;49.902;22.508;2023-04-01T13:06:27;97024.06;;;19.30;45.76
37634;BME280;32048;49.902;22.508;2023-04-01T13:12:24;97026.50;;;18.30;48.13
37634;BME280;32048;49.902;22.508;2023-04-01T13:21:03;97034.22;;;17.42;50.39
37634;BME280;32048;49.902;22.508;2023-04-01T13:24:24;97030.50;;;17.11;51.30
37634;BME280;32048;49.902;22.508;2023-04-01T13:29:36;97035.41;;;16.55;53.66
37634;BME280;32048;49.902;22.508;2023-04-01T13:32:34;97034.28;;;16.31;54.38
37634;BME280;32048;49.902;22.508;2023-04-01T13:37:58;97040.34;;;15.89;56.32
37634;BME280;32048;49.902;22.508;2023-04-01T13:43:27;97037.88;;;15.34;56.03
37634;BME280;32048;49.902;22.508;2023-04-01T13:57:23;97037.69;;;15.17;63.37
37634;BME280;32048;49.902;22.508;2023-04-01T14:00:17;97040.88;;;15.03;64.21
37634;BME280;32048;49.902;22.508;2023-04-01T14:25:25;97044.78;;;14.44;69.30
37634;BME280;32048;49.902;22.508;2023-04-01T14:31:16;97039.75;;;14.41;70.91
37634;BME280;32048;49.902;22.508;2023-04-01T14:51:46;97057.19;;;14.16;70.76
37634;BME280;32048;49.902;22.508;2023-04-01T14:57:10;97059.19;;;13.84;73.29
37634;BME280;32048;49.902;22.508;2023-04-01T14:59:41;97064.50;;;13.84;72.69
37634;BME280;32048;49.902;22.508;2023-04-01T15:05:16;97064.50;;;13.84;72.32
37634;BME280;32048;49.902;22.508;2023-04-01T15:08:00;97067.03;;;13.86;71.39
37634;BME280;32048;49.902;22.508;2023-04-01T15:16:06;97075.25;;;13.54;72.22
37634;BME280;32048;49.902;22.508;2023-04-01T15:24:47;97086.50;;;13.17;73.70
37634;BME280;32048;49.902;22.508;2023-04-01T15:27:55;97084.53;;;13.09;74.20
37634;BME280;32048;49.902;22.508;2023-04-01T15:36:04;97105.81;;;12.78;79.17
37634;BME280;32048;49.902;22.508;2023-04-01T15:38:48;97098.91;;;12.66;81.84
37634;BME280;32048;49.902;22.508;2023-04-01T15:42:04;97105.44;;;12.62;82.18
37634;BME280;32048;49.902;22.508;2023-04-01T15:44:42;97101.13;;;12.61;84.14
37634;BME280;32048;49.902;22.508;2023-04-01T15:50:37;97110.13;;;12.48;86.08
37634;BME280;32048;49.902;22.508;2023-04-01T15:52:56;97113.75;;;12.47;86.64
37634;BME280;32048;49.902;22.508;2023-04-01T15:55:42;97112.34;;;12.43;88.08
37634;BME280;32048;49.902;22.508;2023-04-01T16:03:48;97120.47;;;12.31;90.20
37634;BME280;32048;49.902;22.508;2023-04-01T16:20:18;97137.41;;;12.18;91.16
37634;BME280;32048;49.902;22.508;2023-04-01T16:22:57;97136.56;;;12.18;91.08
37634;BME280;32048;49.902;22.508;2023-04-01T16:31:43;97140.31;;;12.15;93.50
37634;BME280;32048;49.902;22.508;2023-04-01T16:34:18;97145.84;;;12.12;95.47
37634;BME280;32048;49.902;22.508;2023-04-01T16:37:07;97142.06;;;12.05;96.28
37634;BME280;32048;49.902;22.508;2023-04-01T16:39:53;97148.69;;;11.99;97.13
37634;BME280;32048;49.902;22.508;2023-04-01T16:42:40;97158.94;;;11.93;98.29
37634;BME280;32048;49.902;22.508;2023-04-01T16:47:49;97164.50;;;11.90;99.81
37634;BME280;32048;49.902;22.508;2023-04-01T16:50:21;97161.13;;;11.88;99.71
37634;BME280;32048;49.902;22.508;2023-04-01T16:53:30;97173.50;;;11.87;100.00
37634;BME280;32048;49.902;22.508;2023-04-01T16:55:54;97170.97;;;11.85;100.00
37634;BME280;32048;49.902;22.508;2023-04-01T16:58:40;97177.34;;;11.83;100.00
37634;BME280;32048;49.902;22.508;2023-04-01T17:01:36;97178.56;;;11.79;100.00
37634;BME280;32048;49.902;22.508;2023-04-01T17:04:17;97185.06;;;11.75;100.00
37634;BME280;32048;49.902;22.508;2023-04-01T17:06:54;97181.84;;;11.71;100.00
37634;BME280;32048;49.902;22.508;2023-04-01T17:23:01;97204.63;;;11.51;100.00
37634;BME280;32048;49.902;22.508;2023-04-01T17:36:28;97230.47;;;11.36;97.86
37634;BME280;32048;49.902;22.508;2023-04-01T17:58:29;97254.25;;;11.14;92.44
37634;BME280;32048;49.902;22.508;2023-04-01T18:04:18;97270.09;;;11.02;92.54
37634;BME280;32048;49.902;22.508;2023-04-01T18:07:33;97272.88;;;10.90;93.54
37634;BME280;32048;49.902;22.508;2023-04-01T18:10:28;97276.69;;;10.86;94.00
37634;BME280;32048;49.902;22.508;2023-04-01T18:23:58;97288.50;;;10.57;98.47
37634;BME280;32048;49.902;22.508;2023-04-01T18:26:36;97284.66;;;10.50;99.07
37634;BME280;32048;49.902;22.508;2023-04-01T18:31:52;97286.09;;;10.43;99.63
37634;BME280;32048;49.902;22.508;2023-04-01T18:37:01;97290.13;;;10.36;100.00
37634;BME280;32048;49.902;22.508;2023-04-01T18:39:52;97287.13;;;10.29;100.00
37634;BME280;32048;49.902;22.508;2023-04-01T18:42:46;97299.03;;;10.22;100.00
37634;BME280;32048;49.902;22.508;2023-04-01T18:45:36;97297.69;;;10.16;100.00
37634;BME280;32048;49.902;22.508;2023-04-01T18:50:50;97290.06;;;10.01;100.00
37634;BME280;32048;49.902;22.508;2023-04-01T18:53:41;97304.03;;;9.90;100.00
37634;BME280;32048;49.902;22.508;2023-04-01T18:56:12;97302.16;;;9.79;100.00
37634;BME280;32048;49.902;22.508;2023-04-01T19:01:26;97304.97;;;9.65;100.00
37634;BME280;32048;49.902;22.508;2023-04-01T19:06:58;97310.56;;;9.60;100.00
37634;BME280;32048;49.902;22.508;2023-04-01T19:09:30;97306.44;;;9.56;100.00
37634;BME280;32048;49.902;22.508;2023-04-01T19:12:18;97312.88;;;9.52;100.00
37634;BME280;32048;49.902;22.508;2023-04-01T19:17:58;97310.34;;;9.50;100.00
37634;BME280;32048;49.902;22.508;2023-04-01T19:20:51;97313.94;;;9.49;100.00
37634;BME280;32048;49.902;22.508;2023-04-01T19:32:37;97321.94;;;9.61;99.32
37634;BME280;32048;49.902;22.508;2023-04-01T19:35:16;97320.78;;;9.65;99.19
37634;BME280;32048;49.902;22.508;2023-04-01T19:37:59;97329.41;;;9.67;98.70
37634;BME280;32048;49.902;22.508;2023-04-01T19:40:42;97333.72;;;9.68;98.22
37634;BME280;32048;49.902;22.508;2023-04-01T19:51:27;97346.38;;;9.75;98.23
37634;BME280;32048;49.902;22.508;2023-04-01T19:57:03;97354.16;;;9.77;98.46
37634;BME280;32048;49.902;22.508;2023-04-01T20:04:40;97357.34;;;9.69;98.88
37634;BME280;32048;49.902;22.508;2023-04-01T20:07:27;97355.88;;;9.65;99.58
37634;BME280;32048;49.902;22.508;2023-04-01T20:15:29;97362.22;;;9.50;100.00
37634;BME280;32048;49.902;22.508;2023-04-01T20:18:12;97364.34;;;9.45;100.00
37634;BME280;32048;49.902;22.508;2023-04-01T20:20:54;97369.94;;;9.40;100.00
37634;BME280;32048;49.902;22.508;2023-04-01T20:23:39;97366.97;;;9.32;100.00
37634;BME280;32048;49.902;22.508;2023-04-01T20:26:14;97374.25;;;9.28;100.00
37634;BME280;32048;49.902;22.508;2023-04-01T20:31:37;97364.34;;;9.19;100.00
37634;BME280;32048;49.902;22.508;2023-04-01T20:40:23;97374.06;;;9.06;100.00
37634;BME280;32048;49.902;22.508;2023-04-01T20:48:55;97384.03;;;9.01;100.00
37634;BME280;32048;49.902;22.508;2023-04-01T20:51:38;97379.91;;;8.97;100.00
37634;BME280;32048;49.902;22.508;2023-04-01T20:54:30;97382.53;;;8.97;100.00
37634;BME280;32048;49.902;22.508;2023-04-01T20:59:52;97390.34;;;8.98;100.00
37634;BME280;32048;49.902;22.508;2023-04-01T21:05:27;97384.44;;;8.94;100.00
37634;BME280;32048;49.902;22.508;2023-04-01T21:22:39;97396.75;;;8.94;100.00
37634;BME280;32048;49.902;22.508;2023-04-01T21:25:34;97395.19;;;8.91;100.00
37634;BME280;32048;49.902;22.508;2023-04-01T21:44:14;97397.19;;;9.01;100.00
37634;BME280;32048;49.902;22.508;2023-04-01T22:09:17;97402.47;;;9.13;100.00
37634;BME280;32048;49.902;22.508;2023-04-01T22:11:57;97403.53;;;9.11;100.00
37634;BME280;32048;49.902;22.508;2023-04-01T22:17:16;97408.91;;;9.09;100.00
37634;BME280;32048;49.902;22.508;2023-04-01T22:20:16;97407.72;;;9.01;100.00
37634;BME280;32048;49.902;22.508;2023-04-01T22:25:57;97415.94;;;8.96;100.00
37634;BME280;32048;49.902;22.508;2023-04-01T22:31:28;97412.69;;;8.92;100.00
37634;BME280;32048;49.902;22.508;2023-04-01T22:40:07;97409.63;;;8.86;100.00
37634;BME280;32048;49.902;22.508;2023-04-01T22:56:28;97421.50;;;8.51;100.00
37634;BME280;32048;49.902;22.508;2023-04-01T22:59:17;97413.81;;;8.48;100.00
37634;BME280;32048;49.902;22.508;2023-04-01T23:02:10;97424.03;;;8.53;100.00
37634;BME280;32048;49.902;22.508;2023-04-01T23:04:43;97420.34;;;8.56;100.00
37634;BME280;32048;49.902;22.508;2023-04-01T23:10:11;97412.91;;;8.62;100.00
37634;BME280;32048;49.902;22.508;2023-04-01T23:12:41;97414.50;;;8.65;100.00
37634;BME280;32048;49.902;22.508;2023-04-01T23:15:13;97412.69;;;8.65;100.00
37634;BME280;32048;49.902;22.508;2023-04-01T23:17:51;97419.66;;;8.66;100.00
37634;BME280;32048;49.902;22.508;2023-04-01T23:20:31;97415.22;;;8.67;100.00
37634;BME280;32048;49.902;22.508;2023-04-01T23:23:22;97419.00;;;8.63;100.00
37634;BME280;32048;49.902;22.508;2023-04-01T23:26:17;97423.22;;;8.65;100.00
37634;BME280;32048;49.902;22.508;2023-04-01T23:28:55;97417.03;;;8.66;100.00